KSIK/SIK METAR and TAF weather

Enter ICAO airport designator
Station Type Date Time Source
KSIK METAR 2018/12/10 02:55 UTC NOAA

KSIK 100255Z AUTO 36005KT 10SM CLR 00/M05 A3026 RMK AO2


Station Type Date Time Source
KSIK Decoded METAR 2018/12/10 02:55 UTC NOAA

Station name not available
Dec 09, 2018 - 09:55 PM EST / 2018.12.10 0255 UTC
Wind: from the N (360 degrees) at 6 MPH (5 KT):0
Visibility: 10 mile(s):0
Sky conditions: clear
Temperature: 32 F (0 C)
Windchill: 26 F (-3 C):1
Dew Point: 23 F (-5 C)
Relative Humidity: 69%
Pressure (altimeter): 30.26 in. Hg (1024 hPa)
ob: KSIK 100255Z AUTO 36005KT 10SM CLR 00/M05 A3026 RMK AO2
cycle: 3

Station Type Date Time Source
KSIK TAF UTC NOAA

Error!


Example: see airport list